WXM80 ListenWXM80 Stop

You find our weather info also at:

UK Metoffice

WeatherCloud

Weather Underground

Northeastern Weather Network

AWEKAS

Citizen Weather Observer Program (CWOP)

HAMweather, WeatherForYou, PWS Weather


Weather Underground History page Text

Daily Summary for February 16, 2017 Units:  Both    English   Metric
« Previous Day
Next Day »
Daily Weekly Monthly Yearly Custom
  High: Low: Average:
Temperature: 38.1 °F /  3.4 °C 28.3 °F /  -2.1 °C 33.3 °F /  0.7 °C
Dew Point: 28.6 °F /  -1.9 °C 18.4 °F /  -7.6 °C 21.6 °F /  -5.8 °C
Humidity: 75 % 51 % 62 %
Wind Speed: 12.5 mph /  20.1 km/h - 7.8 mph /  12.6 km/h
Wind Gust: 23.0 mph /  37 km/h - -
Wind:- - WNW
Pressure: 29.74 in /  1007 hPa 29.38 in /  994.8 hPa -
Precipitation: 0.00 in /  0 mm    
Historical Graphs
 
 
Tabular Data for February 16, 2017
Time Temperature Dew Point Pressure Wind Wind Speed Wind Gust Humidity Rainfall Rate (Hourly)
00:00 35.8 °F /  2.1 °C 28.6 °F /  -1.9 °C 29.38 in /  994.8 hPa WNW 6.5 mph /  10.5 km/h 12.0 mph /  19.3 km/h 75 % 0.00 in /  0 mm
00:05 35.8 °F /  2.1 °C 28.3 °F /  -2.1 °C 29.39 in /  995.1 hPa WNW 8.3 mph /  13.4 km/h 11.5 mph /  18.5 km/h 74 % 0.00 in /  0 mm
00:10 35.8 °F /  2.1 °C 28.3 °F /  -2.1 °C 29.39 in /  995.1 hPa SW 9.3 mph /  15 km/h 12.7 mph /  20.4 km/h 74 % 0.00 in /  0 mm
00:15 35.8 °F /  2.1 °C 28.3 °F /  -2.1 °C 29.39 in /  995.1 hPa WNW 5.4 mph /  8.7 km/h 10.4 mph /  16.7 km/h 74 % 0.00 in /  0 mm
00:20 35.8 °F /  2.1 °C 28.0 °F /  -2.2 °C 29.39 in /  995.1 hPa WNW 5.4 mph /  8.7 km/h 8.1 mph /  13 km/h 73 % 0.00 in /  0 mm
00:25 35.8 °F /  2.1 °C 28.0 °F /  -2.2 °C 29.39 in /  995.1 hPa WNW 8.1 mph /  13 km/h 13.0 mph /  20.9 km/h 73 % 0.00 in /  0 mm
00:30 35.8 °F /  2.1 °C 28.0 °F /  -2.2 °C 29.39 in /  995.1 hPa West 5.7 mph /  9.2 km/h 12.0 mph /  19.3 km/h 73 % 0.00 in /  0 mm
00:35 35.7 °F /  2.1 °C 27.6 °F /  -2.4 °C 29.39 in /  995.1 hPa West 8.1 mph /  13 km/h 11.5 mph /  18.5 km/h 72 % 0.00 in /  0 mm
00:40 35.7 °F /  2.1 °C 27.6 °F /  -2.4 °C 29.39 in /  995.1 hPa WSW 7.2 mph /  11.6 km/h 11.5 mph /  18.5 km/h 72 % 0.00 in /  0 mm
00:46 35.7 °F /  2.1 °C 27.6 °F /  -2.4 °C 29.39 in /  995.1 hPa SW 8.9 mph /  14.3 km/h 14.0 mph /  22.5 km/h 72 % 0.00 in /  0 mm
00:51 35.7 °F /  2.1 °C 27.6 °F /  -2.4 °C 29.39 in /  995.1 hPa West 8.4 mph /  13.5 km/h 13.0 mph /  20.9 km/h 72 % 0.00 in /  0 mm
00:56 35.6 °F /  2 °C 27.5 °F /  -2.5 °C 29.39 in /  995.1 hPa West 7.3 mph /  11.7 km/h 11.5 mph /  18.5 km/h 72 % 0.00 in /  0 mm
01:01 35.6 °F /  2 °C 27.5 °F /  -2.5 °C 29.39 in /  995.1 hPa West 10.7 mph /  17.2 km/h 17.3 mph /  27.8 km/h 72 % 0.00 in /  0 mm
01:06 35.6 °F /  2 °C 27.5 °F /  -2.5 °C 29.40 in /  995.5 hPa West 11.4 mph /  18.3 km/h 18.4 mph /  29.6 km/h 72 % 0.00 in /  0 mm
01:11 35.5 °F /  1.9 °C 27.4 °F /  -2.6 °C 29.39 in /  995.1 hPa West 9.1 mph /  14.6 km/h 17.3 mph /  27.8 km/h 72 % 0.00 in /  0 mm
01:16 35.4 °F /  1.9 °C 27.3 °F /  -2.6 °C 29.39 in /  995.1 hPa WSW 8.6 mph /  13.8 km/h 15.0 mph /  24.1 km/h 72 % 0.00 in /  0 mm
01:21 35.3 °F /  1.8 °C 27.2 °F /  -2.7 °C 29.40 in /  995.5 hPa NW 8.5 mph /  13.7 km/h 19.6 mph /  31.5 km/h 72 % 0.00 in /  0 mm
01:26 35.3 °F /  1.8 °C 26.8 °F /  -2.9 °C 29.40 in /  995.5 hPa WNW 7.7 mph /  12.4 km/h 19.6 mph /  31.5 km/h 71 % 0.00 in /  0 mm
01:31 35.2 °F /  1.8 °C 26.7 °F /  -2.9 °C 29.40 in /  995.5 hPa WNW 4.9 mph /  7.9 km/h 16.1 mph /  25.9 km/h 71 % 0.00 in /  0 mm
01:36 35.2 °F /  1.8 °C 26.7 °F /  -2.9 °C 29.40 in /  995.5 hPa SSW 6.3 mph /  10.1 km/h 8.1 mph /  13 km/h 71 % 0.00 in /  0 mm
01:41 35.0 °F /  1.7 °C 26.2 °F /  -3.2 °C 29.40 in /  995.5 hPa NW 7.6 mph /  12.2 km/h 12.7 mph /  20.4 km/h 70 % 0.00 in /  0 mm
01:46 35.0 °F /  1.7 °C 26.2 °F /  -3.2 °C 29.40 in /  995.5 hPa WNW 5.9 mph /  9.5 km/h 15.0 mph /  24.1 km/h 70 % 0.00 in /  0 mm
01:51 34.9 °F /  1.6 °C 25.8 °F /  -3.4 °C 29.39 in /  995.1 hPa SW 9.1 mph /  14.6 km/h 16.1 mph /  25.9 km/h 69 % 0.00 in /  0 mm
01:56 34.8 °F /  1.6 °C 25.7 °F /  -3.5 °C 29.40 in /  995.5 hPa NW 7.5 mph /  12.1 km/h 10.4 mph /  16.7 km/h 69 % 0.00 in /  0 mm
02:02 34.8 °F /  1.6 °C 25.7 °F /  -3.5 °C 29.40 in /  995.5 hPa WSW 7.7 mph /  12.4 km/h 15.0 mph /  24.1 km/h 69 % 0.00 in /  0 mm
02:07 34.7 °F /  1.5 °C 25.6 °F /  -3.6 °C 29.39 in /  995.1 hPa NW 10.2 mph /  16.4 km/h 16.1 mph /  25.9 km/h 69 % 0.00 in /  0 mm
02:12 34.6 °F /  1.4 °C 25.1 °F /  -3.8 °C 29.40 in /  995.5 hPa West 10.0 mph /  16.1 km/h 17.0 mph /  27.4 km/h 68 % 0.00 in /  0 mm
02:17 34.6 °F /  1.4 °C 25.1 °F /  -3.8 °C 29.40 in /  995.5 hPa WSW 6.2 mph /  10 km/h 11.5 mph /  18.5 km/h 68 % 0.00 in /  0 mm
02:22 34.5 °F /  1.4 °C 25.0 °F /  -3.9 °C 29.40 in /  995.5 hPa West 9.1 mph /  14.6 km/h 16.0 mph /  25.7 km/h 68 % 0.00 in /  0 mm
02:27 34.4 °F /  1.3 °C 24.6 °F /  -4.1 °C 29.41 in /  995.8 hPa WSW 10.7 mph /  17.2 km/h 16.0 mph /  25.7 km/h 67 % 0.00 in /  0 mm
02:32 34.3 °F /  1.3 °C 24.8 °F /  -4 °C 29.40 in /  995.5 hPa NW 5.7 mph /  9.2 km/h 9.2 mph /  14.8 km/h 68 % 0.00 in /  0 mm
02:37 34.2 °F /  1.2 °C 24.4 °F /  -4.2 °C 29.40 in /  995.5 hPa NW 8.8 mph /  14.2 km/h 11.5 mph /  18.5 km/h 67 % 0.00 in /  0 mm
02:42 34.2 °F /  1.2 °C 24.4 °F /  -4.2 °C 29.41 in /  995.8 hPa West 7.7 mph /  12.4 km/h 11.5 mph /  18.5 km/h 67 % 0.00 in /  0 mm
02:47 34.1 °F /  1.2 °C 24.3 °F /  -4.3 °C 29.40 in /  995.5 hPa West 11.0 mph /  17.7 km/h 19.6 mph /  31.5 km/h 67 % 0.00 in /  0 mm
02:52 34.0 °F /  1.1 °C 24.2 °F /  -4.3 °C 29.40 in /  995.5 hPa WSW 9.2 mph /  14.8 km/h 15.0 mph /  24.1 km/h 67 % 0.00 in /  0 mm
02:57 33.9 °F /  1.1 °C 24.1 °F /  -4.4 °C 29.40 in /  995.5 hPa West 10.9 mph /  17.5 km/h 17.3 mph /  27.8 km/h 67 % 0.00 in /  0 mm
03:02 33.8 °F /  1 °C 24.0 °F /  -4.4 °C 29.40 in /  995.5 hPa West 6.1 mph /  9.8 km/h 12.7 mph /  20.4 km/h 67 % 0.00 in /  0 mm
03:07 33.6 °F /  0.9 °C 24.2 °F /  -4.3 °C 29.41 in /  995.8 hPa West 8.4 mph /  13.5 km/h 15.0 mph /  24.1 km/h 68 % 0.00 in /  0 mm
03:12 33.5 °F /  0.8 °C 24.1 °F /  -4.4 °C 29.41 in /  995.8 hPa NW 5.9 mph /  9.5 km/h 17.3 mph /  27.8 km/h 68 % 0.00 in /  0 mm
03:17 33.4 °F /  0.8 °C 24.3 °F /  -4.3 °C 29.42 in /  996.2 hPa NW 6.5 mph /  10.5 km/h 11.5 mph /  18.5 km/h 69 % 0.00 in /  0 mm
03:22 33.3 °F /  0.7 °C 24.6 °F /  -4.1 °C 29.41 in /  995.8 hPa NW 11.5 mph /  18.5 km/h 18.4 mph /  29.6 km/h 70 % 0.00 in /  0 mm
03:27 33.3 °F /  0.7 °C 24.2 °F /  -4.3 °C 29.42 in /  996.2 hPa North 8.8 mph /  14.2 km/h 11.5 mph /  18.5 km/h 69 % 0.00 in /  0 mm
03:33 33.2 °F /  0.7 °C 24.5 °F /  -4.2 °C 29.42 in /  996.2 hPa WNW 4.5 mph /  7.2 km/h 11.0 mph /  17.7 km/h 70 % 0.00 in /  0 mm
03:38 33.2 °F /  0.7 °C 24.1 °F /  -4.4 °C 29.42 in /  996.2 hPa West 6.0 mph /  9.7 km/h 11.5 mph /  18.5 km/h 69 % 0.00 in /  0 mm
03:43 33.2 °F /  0.7 °C 24.5 °F /  -4.2 °C 29.42 in /  996.2 hPa NW 7.0 mph /  11.3 km/h 15.0 mph /  24.1 km/h 70 % 0.00 in /  0 mm
03:48 33.1 °F /  0.6 °C 24.4 °F /  -4.2 °C 29.42 in /  996.2 hPa WNW 8.8 mph /  14.2 km/h 17.3 mph /  27.8 km/h 70 % 0.00 in /  0 mm
03:53 33.1 °F /  0.6 °C 24.4 °F /  -4.2 °C 29.42 in /  996.2 hPa NW 4.8 mph /  7.7 km/h 11.0 mph /  17.7 km/h 70 % 0.00 in /  0 mm
03:58 33.0 °F /  0.6 °C 24.3 °F /  -4.3 °C 29.42 in /  996.2 hPa NW 8.6 mph /  13.8 km/h 12.7 mph /  20.4 km/h 70 % 0.00 in /  0 mm
04:03 33.0 °F /  0.6 °C 24.3 °F /  -4.3 °C 29.42 in /  996.2 hPa WNW 9.6 mph /  15.4 km/h 16.1 mph /  25.9 km/h 70 % 0.00 in /  0 mm
04:08 33.0 °F /  0.6 °C 23.9 °F /  -4.5 °C 29.42 in /  996.2 hPa West 9.1 mph /  14.6 km/h 18.4 mph /  29.6 km/h 69 % 0.00 in /  0 mm
04:13 33.0 °F /  0.6 °C 23.9 °F /  -4.5 °C 29.43 in /  996.5 hPa NW 6.6 mph /  10.6 km/h 12.7 mph /  20.4 km/h 69 % 0.00 in /  0 mm
04:18 33.0 °F /  0.6 °C 23.9 °F /  -4.5 °C 29.43 in /  996.5 hPa West 7.1 mph /  11.4 km/h 16.1 mph /  25.9 km/h 69 % 0.00 in /  0 mm
04:28 32.9 °F /  0.5 °C 23.5 °F /  -4.7 °C 29.43 in /  996.5 hPa WNW 7.6 mph /  12.2 km/h 11.5 mph /  18.5 km/h 68 % 0.00 in /  0 mm
04:33 32.8 °F /  0.4 °C 23.7 °F /  -4.6 °C 29.43 in /  996.5 hPa NW 4.9 mph /  7.9 km/h 9.2 mph /  14.8 km/h 69 % 0.00 in /  0 mm
04:38 32.7 °F /  0.4 °C 23.3 °F /  -4.8 °C 29.43 in /  996.5 hPa North 8.9 mph /  14.3 km/h 16.1 mph /  25.9 km/h 68 % 0.00 in /  0 mm
04:44 32.7 °F /  0.4 °C 22.9 °F /  -5.1 °C 29.43 in /  996.5 hPa West 7.3 mph /  11.7 km/h 11.5 mph /  18.5 km/h 67 % 0.00 in /  0 mm
04:49 32.6 °F /  0.3 °C 22.8 °F /  -5.1 °C 29.44 in /  996.8 hPa WNW 11.6 mph /  18.7 km/h 19.6 mph /  31.5 km/h 67 % 0.00 in /  0 mm
04:54 32.5 °F /  0.3 °C 22.4 °F /  -5.3 °C 29.43 in /  996.5 hPa WNW 8.7 mph /  14 km/h 16.1 mph /  25.9 km/h 66 % 0.00 in /  0 mm
04:59 32.6 °F /  0.3 °C 22.8 °F /  -5.1 °C 29.44 in /  996.8 hPa West 8.3 mph /  13.4 km/h 12.7 mph /  20.4 km/h 67 % 0.00 in /  0 mm
05:04 32.5 °F /  0.3 °C 22.8 °F /  -5.1 °C 29.44 in /  996.8 hPa WNW 7.3 mph /  11.7 km/h 11.5 mph /  18.5 km/h 67 % 0.00 in /  0 mm
05:09 32.4 °F /  0.2 °C 22.7 °F /  -5.2 °C 29.44 in /  996.8 hPa NW 7.6 mph /  12.2 km/h 15.0 mph /  24.1 km/h 67 % 0.00 in /  0 mm
05:14 32.4 °F /  0.2 °C 22.7 °F /  -5.2 °C 29.43 in /  996.5 hPa NW 6.7 mph /  10.8 km/h 19.6 mph /  31.5 km/h 67 % 0.00 in /  0 mm
05:19 32.3 °F /  0.2 °C 22.6 °F /  -5.2 °C 29.44 in /  996.8 hPa West 7.7 mph /  12.4 km/h 16.0 mph /  25.7 km/h 67 % 0.00 in /  0 mm
05:24 32.3 °F /  0.2 °C 22.6 °F /  -5.2 °C 29.44 in /  996.8 hPa WNW 7.5 mph /  12.1 km/h 11.5 mph /  18.5 km/h 67 % 0.00 in /  0 mm
05:29 32.2 °F /  0.1 °C 22.1 °F /  -5.5 °C 29.44 in /  996.8 hPa NW 9.9 mph /  15.9 km/h 12.0 mph /  19.3 km/h 66 % 0.00 in /  0 mm
05:34 32.2 °F /  0.1 °C 22.1 °F /  -5.5 °C 29.45 in /  997.2 hPa West 8.1 mph /  13 km/h 16.0 mph /  25.7 km/h 66 % 0.00 in /  0 mm
05:39 32.1 °F /  0.1 °C 22.0 °F /  -5.6 °C 29.44 in /  996.8 hPa NW 9.5 mph /  15.3 km/h 12.7 mph /  20.4 km/h 66 % 0.00 in /  0 mm
05:44 32.1 °F /  0.1 °C 21.7 °F /  -5.7 °C 29.44 in /  996.8 hPa West 9.1 mph /  14.6 km/h 18.4 mph /  29.6 km/h 65 % 0.00 in /  0 mm
05:49 32.0 °F /  0 °C 21.9 °F /  -5.6 °C 29.44 in /  996.8 hPa WNW 7.5 mph /  12.1 km/h 15.0 mph /  24.1 km/h 66 % 0.00 in /  0 mm
05:54 31.9 °F /  -0.1 °C 21.8 °F /  -5.7 °C 29.45 in /  997.2 hPa WSW 10.1 mph /  16.3 km/h 18.4 mph /  29.6 km/h 66 % 0.00 in /  0 mm
05:59 31.9 °F /  -0.1 °C 21.1 °F /  -6.1 °C 29.45 in /  997.2 hPa WNW 10.1 mph /  16.3 km/h 19.0 mph /  30.6 km/h 64 % 0.00 in /  0 mm
06:04 31.8 °F /  -0.1 °C 21.0 °F /  -6.1 °C 29.46 in /  997.5 hPa WNW 5.8 mph /  9.3 km/h 19.6 mph /  31.5 km/h 64 % 0.00 in /  0 mm
06:09 31.7 °F /  -0.2 °C 20.9 °F /  -6.2 °C 29.46 in /  997.5 hPa SW 8.5 mph /  13.7 km/h 13.8 mph /  22.2 km/h 64 % 0.00 in /  0 mm
06:14 31.7 °F /  -0.2 °C 21.3 °F /  -5.9 °C 29.46 in /  997.5 hPa WNW 10.9 mph /  17.5 km/h 21.9 mph /  35.2 km/h 65 % 0.00 in /  0 mm
06:19 31.6 °F /  -0.2 °C 20.4 °F /  -6.4 °C 29.46 in /  997.5 hPa West 10.9 mph /  17.5 km/h 21.9 mph /  35.2 km/h 63 % 0.00 in /  0 mm
06:24 31.6 °F /  -0.2 °C 20.8 °F /  -6.2 °C 29.46 in /  997.5 hPa NW 9.2 mph /  14.8 km/h 21.9 mph /  35.2 km/h 64 % 0.00 in /  0 mm
06:30 31.5 °F /  -0.3 °C 20.7 °F /  -6.3 °C 29.46 in /  997.5 hPa NW 8.7 mph /  14 km/h 18.0 mph /  29 km/h 64 % 0.00 in /  0 mm
06:35 31.4 °F /  -0.3 °C 20.6 °F /  -6.3 °C 29.46 in /  997.5 hPa West 5.5 mph /  8.9 km/h 11.5 mph /  18.5 km/h 64 % 0.00 in /  0 mm
06:40 31.4 °F /  -0.3 °C 21.0 °F /  -6.1 °C 29.47 in /  997.9 hPa WNW 9.4 mph /  15.1 km/h 17.3 mph /  27.8 km/h 65 % 0.00 in /  0 mm
06:45 31.4 °F /  -0.3 °C 21.0 °F /  -6.1 °C 29.47 in /  997.9 hPa NW 8.0 mph /  12.9 km/h 13.0 mph /  20.9 km/h 65 % 0.00 in /  0 mm
06:50 31.3 °F /  -0.4 °C 20.9 °F /  -6.2 °C 29.47 in /  997.9 hPa West 6.1 mph /  9.8 km/h 16.1 mph /  25.9 km/h 65 % 0.00 in /  0 mm
06:55 31.2 °F /  -0.4 °C 20.8 °F /  -6.2 °C 29.48 in /  998.2 hPa WNW 10.9 mph /  17.5 km/h 17.0 mph /  27.4 km/h 65 % 0.00 in /  0 mm
07:00 31.2 °F /  -0.4 °C 20.8 °F /  -6.2 °C 29.48 in /  998.2 hPa West 8.1 mph /  13 km/h 13.0 mph /  20.9 km/h 65 % 0.00 in /  0 mm
07:05 31.2 °F /  -0.4 °C 20.4 °F /  -6.4 °C 29.48 in /  998.2 hPa NNW 8.9 mph /  14.3 km/h 13.8 mph /  22.2 km/h 64 % 0.00 in /  0 mm
07:10 31.3 °F /  -0.4 °C 20.5 °F /  -6.4 °C 29.48 in /  998.2 hPa West 9.3 mph /  15 km/h 11.5 mph /  18.5 km/h 64 % 0.00 in /  0 mm
07:15 31.3 °F /  -0.4 °C 20.5 °F /  -6.4 °C 29.48 in /  998.2 hPa West 8.8 mph /  14.2 km/h 18.0 mph /  29 km/h 64 % 0.00 in /  0 mm
07:20 31.2 °F /  -0.4 °C 20.1 °F /  -6.6 °C 29.48 in /  998.2 hPa SW 6.6 mph /  10.6 km/h 19.6 mph /  31.5 km/h 63 % 0.00 in /  0 mm
07:21 31.3 °F /  -0.4 °C 20.2 °F /  -6.6 °C 29.48 in /  998.2 hPa WNW 3.6 mph /  5.8 km/h 17.3 mph /  27.8 km/h 63 % 0.00 in /  0 mm
07:26 31.2 °F /  -0.4 °C 20.1 °F /  -6.6 °C 29.49 in /  998.5 hPa WNW 9.4 mph /  15.1 km/h 16.0 mph /  25.7 km/h 63 % 0.00 in /  0 mm
07:31 31.2 °F /  -0.4 °C 20.4 °F /  -6.4 °C 29.49 in /  998.5 hPa West 7.0 mph /  11.3 km/h 16.1 mph /  25.9 km/h 64 % 0.00 in /  0 mm
07:36 31.2 °F /  -0.4 °C 20.8 °F /  -6.2 °C 29.49 in /  998.5 hPa WSW 7.9 mph /  12.7 km/h 12.7 mph /  20.4 km/h 65 % 0.00 in /  0 mm
07:41 31.3 °F /  -0.4 °C 20.2 °F /  -6.6 °C 29.48 in /  998.2 hPa NW 8.9 mph /  14.3 km/h 19.6 mph /  31.5 km/h 63 % 0.00 in /  0 mm
07:46 31.2 °F /  -0.4 °C 20.1 °F /  -6.6 °C 29.49 in /  998.5 hPa WNW 10.2 mph /  16.4 km/h 23.0 mph /  37 km/h 63 % 0.00 in /  0 mm
07:51 31.2 °F /  -0.4 °C 20.1 °F /  -6.6 °C 29.49 in /  998.5 hPa WNW 12.4 mph /  20 km/h 19.6 mph /  31.5 km/h 63 % 0.00 in /  0 mm
07:56 31.2 °F /  -0.4 °C 20.1 °F /  -6.6 °C 29.49 in /  998.5 hPa WNW 7.3 mph /  11.7 km/h 18.0 mph /  29 km/h 63 % 0.00 in /  0 mm
08:01 31.2 °F /  -0.4 °C 20.1 °F /  -6.6 °C 29.49 in /  998.5 hPa WSW 7.6 mph /  12.2 km/h 12.7 mph /  20.4 km/h 63 % 0.00 in /  0 mm
08:06 31.2 °F /  -0.4 °C 19.7 °F /  -6.8 °C 29.50 in /  998.9 hPa SW 7.3 mph /  11.7 km/h 18.4 mph /  29.6 km/h 62 % 0.00 in /  0 mm
08:11 31.3 °F /  -0.4 °C 19.8 °F /  -6.8 °C 29.50 in /  998.9 hPa West 7.2 mph /  11.6 km/h 17.0 mph /  27.4 km/h 62 % 0.00 in /  0 mm
08:16 31.4 °F /  -0.3 °C 19.9 °F /  -6.7 °C 29.50 in /  998.9 hPa WNW 8.9 mph /  14.3 km/h 17.3 mph /  27.8 km/h 62 % 0.00 in /  0 mm
08:21 31.6 °F /  -0.2 °C 20.1 °F /  -6.6 °C 29.50 in /  998.9 hPa West 9.4 mph /  15.1 km/h 15.0 mph /  24.1 km/h 62 % 0.00 in /  0 mm
08:26 31.8 °F /  -0.1 °C 20.3 °F /  -6.5 °C 29.50 in /  998.9 hPa West 6.8 mph /  10.9 km/h 11.5 mph /  18.5 km/h 62 % 0.00 in /  0 mm
08:31 32.0 °F /  0 °C 20.4 °F /  -6.4 °C 29.50 in /  998.9 hPa WNW 11.5 mph /  18.5 km/h 16.1 mph /  25.9 km/h 62 % 0.00 in /  0 mm
08:36 32.1 °F /  0.1 °C 20.2 °F /  -6.6 °C 29.50 in /  998.9 hPa NW 8.6 mph /  13.8 km/h 15.0 mph /  24.1 km/h 61 % 0.00 in /  0 mm
08:41 32.1 °F /  0.1 °C 20.2 °F /  -6.6 °C 29.50 in /  998.9 hPa NW 7.5 mph /  12.1 km/h 15.0 mph /  24.1 km/h 61 % 0.00 in /  0 mm
08:46 32.4 °F /  0.2 °C 20.8 °F /  -6.2 °C 29.51 in /  999.2 hPa NW 11.0 mph /  17.7 km/h 17.3 mph /  27.8 km/h 62 % 0.00 in /  0 mm
08:51 32.6 °F /  0.3 °C 21.0 °F /  -6.1 °C 29.50 in /  998.9 hPa West 7.3 mph /  11.7 km/h 12.0 mph /  19.3 km/h 62 % 0.00 in /  0 mm
08:57 32.9 °F /  0.5 °C 20.9 °F /  -6.2 °C 29.50 in /  998.9 hPa WNW 7.4 mph /  11.9 km/h 13.8 mph /  22.2 km/h 61 % 0.00 in /  0 mm
09:02 33.1 °F /  0.6 °C 20.7 °F /  -6.3 °C 29.51 in /  999.2 hPa WNW 9.2 mph /  14.8 km/h 16.1 mph /  25.9 km/h 60 % 0.00 in /  0 mm
09:07 33.3 °F /  0.7 °C 20.5 °F /  -6.4 °C 29.51 in /  999.2 hPa WNW 9.9 mph /  15.9 km/h 16.1 mph /  25.9 km/h 59 % 0.00 in /  0 mm
09:12 33.6 °F /  0.9 °C 21.2 °F /  -6 °C 29.51 in /  999.2 hPa West 5.4 mph /  8.7 km/h 18.0 mph /  29 km/h 60 % 0.00 in /  0 mm
09:17 33.9 °F /  1.1 °C 20.7 °F /  -6.3 °C 29.51 in /  999.2 hPa WNW 8.3 mph /  13.4 km/h 18.0 mph /  29 km/h 58 % 0.00 in /  0 mm
09:22 34.1 °F /  1.2 °C 20.9 °F /  -6.2 °C 29.51 in /  999.2 hPa NW 7.9 mph /  12.7 km/h 8.1 mph /  13 km/h 58 % 0.00 in /  0 mm
09:27 34.2 °F /  1.2 °C 20.5 °F /  -6.4 °C 29.51 in /  999.2 hPa NW 7.6 mph /  12.2 km/h 12.7 mph /  20.4 km/h 57 % 0.00 in /  0 mm
09:32 34.1 °F /  1.2 °C 20.4 °F /  -6.4 °C 29.51 in /  999.2 hPa WNW 9.3 mph /  15 km/h 19.6 mph /  31.5 km/h 57 % 0.00 in /  0 mm
09:37 34.1 °F /  1.2 °C 20.4 °F /  -6.4 °C 29.51 in /  999.2 hPa West 7.9 mph /  12.7 km/h 11.5 mph /  18.5 km/h 57 % 0.00 in /  0 mm
09:42 34.1 °F /  1.2 °C 20.4 °F /  -6.4 °C 29.51 in /  999.2 hPa West 9.6 mph /  15.4 km/h 17.3 mph /  27.8 km/h 57 % 0.00 in /  0 mm
09:47 34.2 °F /  1.2 °C 20.5 °F /  -6.4 °C 29.52 in /  999.5 hPa NW 9.1 mph /  14.6 km/h 11.0 mph /  17.7 km/h 57 % 0.00 in /  0 mm
09:52 34.3 °F /  1.3 °C 20.2 °F /  -6.6 °C 29.52 in /  999.5 hPa West 10.1 mph /  16.3 km/h 17.3 mph /  27.8 km/h 56 % 0.00 in /  0 mm
09:57 34.5 °F /  1.4 °C 20.4 °F /  -6.4 °C 29.52 in /  999.5 hPa West 8.7 mph /  14 km/h 17.3 mph /  27.8 km/h 56 % 0.00 in /  0 mm
10:02 34.7 °F /  1.5 °C 20.6 °F /  -6.3 °C 29.52 in /  999.5 hPa West 6.7 mph /  10.8 km/h 13.8 mph /  22.2 km/h 56 % 0.00 in /  0 mm
10:07 34.7 °F /  1.5 °C 20.2 °F /  -6.6 °C 29.52 in /  999.5 hPa WNW 8.5 mph /  13.7 km/h 13.8 mph /  22.2 km/h 55 % 0.00 in /  0 mm
10:12 34.8 °F /  1.6 °C 20.3 °F /  -6.5 °C 29.52 in /  999.5 hPa WNW 6.8 mph /  10.9 km/h 12.7 mph /  20.4 km/h 55 % 0.00 in /  0 mm
10:17 35.0 °F /  1.7 °C 20.9 °F /  -6.2 °C 29.52 in /  999.5 hPa WNW 9.9 mph /  15.9 km/h 18.4 mph /  29.6 km/h 56 % 0.00 in /  0 mm
10:23 35.3 °F /  1.8 °C 20.7 °F /  -6.3 °C 29.52 in /  999.5 hPa WNW 6.4 mph /  10.3 km/h 13.8 mph /  22.2 km/h 55 % 0.00 in /  0 mm
10:28 35.7 °F /  2.1 °C 20.7 °F /  -6.3 °C 29.52 in /  999.5 hPa WNW 6.2 mph /  10 km/h 13.8 mph /  22.2 km/h 54 % 0.00 in /  0 mm
10:29 35.8 °F /  2.1 °C 20.8 °F /  -6.2 °C 29.52 in /  999.5 hPa WNW 8.0 mph /  12.9 km/h 11.5 mph /  18.5 km/h 54 % 0.00 in /  0 mm
10:34 35.9 °F /  2.2 °C 20.9 °F /  -6.2 °C 29.52 in /  999.5 hPa West 9.0 mph /  14.5 km/h 15.0 mph /  24.1 km/h 54 % 0.00 in /  0 mm
10:39 36.2 °F /  2.3 °C 21.1 °F /  -6.1 °C 29.52 in /  999.5 hPa West 5.1 mph /  8.2 km/h 11.0 mph /  17.7 km/h 54 % 0.00 in /  0 mm
10:44 36.4 °F /  2.4 °C 20.9 °F /  -6.2 °C 29.52 in /  999.5 hPa NW 7.8 mph /  12.6 km/h 16.1 mph /  25.9 km/h 53 % 0.00 in /  0 mm
10:49 36.5 °F /  2.5 °C 20.5 °F /  -6.4 °C 29.52 in /  999.5 hPa WNW 8.5 mph /  13.7 km/h 19.6 mph /  31.5 km/h 52 % 0.00 in /  0 mm
10:54 36.4 °F /  2.4 °C 20.4 °F /  -6.4 °C 29.52 in /  999.5 hPa NW 9.7 mph /  15.6 km/h 18.4 mph /  29.6 km/h 52 % 0.00 in /  0 mm
10:59 36.3 °F /  2.4 °C 20.3 °F /  -6.5 °C 29.53 in /  999.9 hPa WSW 7.2 mph /  11.6 km/h 16.1 mph /  25.9 km/h 52 % 0.00 in /  0 mm
11:05 36.4 °F /  2.4 °C 20.9 °F /  -6.2 °C 29.53 in /  999.9 hPa West 8.5 mph /  13.7 km/h 12.7 mph /  20.4 km/h 53 % 0.00 in /  0 mm
11:10 36.8 °F /  2.7 °C 21.7 °F /  -5.7 °C 29.53 in /  999.9 hPa West 4.9 mph /  7.9 km/h 9.2 mph /  14.8 km/h 54 % 0.00 in /  0 mm
11:15 37.2 °F /  2.9 °C 21.2 °F /  -6 °C 29.53 in /  999.9 hPa West 7.3 mph /  11.7 km/h 15.0 mph /  24.1 km/h 52 % 0.00 in /  0 mm
11:20 37.4 °F /  3 °C 21.4 °F /  -5.9 °C 29.53 in /  999.9 hPa WNW 6.9 mph /  11.1 km/h 11.5 mph /  18.5 km/h 52 % 0.00 in /  0 mm
11:25 37.4 °F /  3 °C 20.9 °F /  -6.2 °C 29.53 in /  999.9 hPa WSW 6.0 mph /  9.7 km/h 10.4 mph /  16.7 km/h 51 % 0.00 in /  0 mm
11:30 37.6 °F /  3.1 °C 21.1 °F /  -6.1 °C 29.53 in /  999.9 hPa West 9.7 mph /  15.6 km/h 18.4 mph /  29.6 km/h 51 % 0.00 in /  0 mm
11:35 37.5 °F /  3.1 °C 21.9 °F /  -5.6 °C 29.52 in /  999.5 hPa WNW 8.1 mph /  13 km/h 16.0 mph /  25.7 km/h 53 % 0.00 in /  0 mm
11:40 37.5 °F /  3.1 °C 21.5 °F /  -5.8 °C 29.53 in /  999.9 hPa WSW 5.0 mph /  8 km/h 15.0 mph /  24.1 km/h 52 % 0.00 in /  0 mm
11:45 37.4 °F /  3 °C 21.4 °F /  -5.9 °C 29.52 in /  999.5 hPa NW 6.8 mph /  10.9 km/h 10.4 mph /  16.7 km/h 52 % 0.00 in /  0 mm
11:50 37.4 °F /  3 °C 21.4 °F /  -5.9 °C 29.52 in /  999.5 hPa West 6.7 mph /  10.8 km/h 12.7 mph /  20.4 km/h 52 % 0.00 in /  0 mm
11:55 37.3 °F /  2.9 °C 21.7 °F /  -5.7 °C 29.52 in /  999.5 hPa WSW 3.9 mph /  6.3 km/h 8.1 mph /  13 km/h 53 % 0.00 in /  0 mm
12:00 37.3 °F /  2.9 °C 22.2 °F /  -5.4 °C 29.53 in /  999.9 hPa NW 7.9 mph /  12.7 km/h 16.1 mph /  25.9 km/h 54 % 0.00 in /  0 mm
12:05 37.1 °F /  2.8 °C 21.5 °F /  -5.8 °C 29.52 in /  999.5 hPa West 5.0 mph /  8 km/h 6.9 mph /  11.1 km/h 53 % 0.00 in /  0 mm
12:11 37.0 °F /  2.8 °C 21.0 °F /  -6.1 °C 29.52 in /  999.5 hPa WNW 9.0 mph /  14.5 km/h 15.0 mph /  24.1 km/h 52 % 0.00 in /  0 mm
12:16 36.9 °F /  2.7 °C 21.8 °F /  -5.7 °C 29.52 in /  999.5 hPa WSW 6.6 mph /  10.6 km/h 12.0 mph /  19.3 km/h 54 % 0.00 in /  0 mm
12:21 37.1 °F /  2.8 °C 21.5 °F /  -5.8 °C 29.52 in /  999.5 hPa NW 11.0 mph /  17.7 km/h 19.6 mph /  31.5 km/h 53 % 0.00 in /  0 mm
12:26 37.2 °F /  2.9 °C 21.6 °F /  -5.8 °C 29.52 in /  999.5 hPa WNW 5.9 mph /  9.5 km/h 11.5 mph /  18.5 km/h 53 % 0.00 in /  0 mm
12:31 37.4 °F /  3 °C 22.3 °F /  -5.4 °C 29.52 in /  999.5 hPa WNW 6.4 mph /  10.3 km/h 10.4 mph /  16.7 km/h 54 % 0.00 in /  0 mm
12:36 37.4 °F /  3 °C 22.3 °F /  -5.4 °C 29.53 in /  999.9 hPa West 6.7 mph /  10.8 km/h 17.0 mph /  27.4 km/h 54 % 0.00 in /  0 mm
12:41 37.4 °F /  3 °C 21.4 °F /  -5.9 °C 29.52 in /  999.5 hPa West 7.1 mph /  11.4 km/h 12.7 mph /  20.4 km/h 52 % 0.00 in /  0 mm
12:46 37.3 °F /  2.9 °C 21.3 °F /  -5.9 °C 29.52 in /  999.5 hPa WSW 6.7 mph /  10.8 km/h 16.1 mph /  25.9 km/h 52 % 0.00 in /  0 mm
12:51 37.3 °F /  2.9 °C 21.7 °F /  -5.7 °C 29.52 in /  999.5 hPa West 8.1 mph /  13 km/h 10.4 mph /  16.7 km/h 53 % 0.00 in /  0 mm
12:56 37.3 °F /  2.9 °C 21.7 °F /  -5.7 °C 29.52 in /  999.5 hPa WNW 8.3 mph /  13.4 km/h 16.0 mph /  25.7 km/h 53 % 0.00 in /  0 mm
13:01 37.3 °F /  2.9 °C 21.3 °F /  -5.9 °C 29.52 in /  999.5 hPa West 10.4 mph /  16.7 km/h 13.8 mph /  22.2 km/h 52 % 0.00 in /  0 mm
13:06 37.5 °F /  3.1 °C 21.5 °F /  -5.8 °C 29.52 in /  999.5 hPa WSW 7.3 mph /  11.7 km/h 13.8 mph /  22.2 km/h 52 % 0.00 in /  0 mm
13:11 37.6 °F /  3.1 °C 21.5 °F /  -5.8 °C 29.53 in /  999.9 hPa NW 8.0 mph /  12.9 km/h 12.7 mph /  20.4 km/h 52 % 0.00 in /  0 mm
13:16 37.6 °F /  3.1 °C 21.5 °F /  -5.8 °C 29.52 in /  999.5 hPa West 7.2 mph /  11.6 km/h 15.0 mph /  24.1 km/h 52 % 0.00 in /  0 mm
13:21 37.7 °F /  3.2 °C 21.6 °F /  -5.8 °C 29.52 in /  999.5 hPa SW 8.0 mph /  12.9 km/h 13.8 mph /  22.2 km/h 52 % 0.00 in /  0 mm
13:26 37.6 °F /  3.1 °C 21.5 °F /  -5.8 °C 29.53 in /  999.9 hPa WNW 10.8 mph /  17.4 km/h 15.0 mph /  24.1 km/h 52 % 0.00 in /  0 mm
13:31 37.7 °F /  3.2 °C 21.6 °F /  -5.8 °C 29.52 in /  999.5 hPa West 8.7 mph /  14 km/h 17.3 mph /  27.8 km/h 52 % 0.00 in /  0 mm
13:36 37.7 °F /  3.2 °C 22.1 °F /  -5.5 °C 29.52 in /  999.5 hPa West 8.0 mph /  12.9 km/h 11.5 mph /  18.5 km/h 53 % 0.00 in /  0 mm
13:41 37.9 °F /  3.3 °C 21.8 °F /  -5.7 °C 29.52 in /  999.5 hPa WSW 5.9 mph /  9.5 km/h 11.5 mph /  18.5 km/h 52 % 0.00 in /  0 mm
13:46 37.9 °F /  3.3 °C 22.3 °F /  -5.4 °C 29.53 in /  999.9 hPa WNW 6.6 mph /  10.6 km/h 11.5 mph /  18.5 km/h 53 % 0.00 in /  0 mm
13:51 38.0 °F /  3.3 °C 21.9 °F /  -5.6 °C 29.53 in /  999.9 hPa NW 8.5 mph /  13.7 km/h 12.7 mph /  20.4 km/h 52 % 0.00 in /  0 mm
13:56 38.1 °F /  3.4 °C 22.0 °F /  -5.6 °C 29.52 in /  999.5 hPa NW 8.5 mph /  13.7 km/h 14.0 mph /  22.5 km/h 52 % 0.00 in /  0 mm
14:01 38.0 °F /  3.3 °C 21.5 °F /  -5.8 °C 29.52 in /  999.5 hPa West 6.5 mph /  10.5 km/h 15.0 mph /  24.1 km/h 51 % 0.00 in /  0 mm
14:06 38.0 °F /  3.3 °C 21.9 °F /  -5.6 °C 29.53 in /  999.9 hPa West 9.8 mph /  15.8 km/h 15.0 mph /  24.1 km/h 52 % 0.00 in /  0 mm
14:11 37.8 °F /  3.2 °C 21.7 °F /  -5.7 °C 29.53 in /  999.9 hPa WNW 7.3 mph /  11.7 km/h 13.8 mph /  22.2 km/h 52 % 0.00 in /  0 mm
14:16 37.9 °F /  3.3 °C 22.3 °F /  -5.4 °C 29.53 in /  999.9 hPa West 8.4 mph /  13.5 km/h 13.8 mph /  22.2 km/h 53 % 0.00 in /  0 mm
14:21 37.8 °F /  3.2 °C 21.7 °F /  -5.7 °C 29.53 in /  999.9 hPa NW 8.7 mph /  14 km/h 17.3 mph /  27.8 km/h 52 % 0.00 in /  0 mm
14:26 37.6 °F /  3.1 °C 21.5 °F /  -5.8 °C 29.53 in /  999.9 hPa West 7.4 mph /  11.9 km/h 13.8 mph /  22.2 km/h 52 % 0.00 in /  0 mm
14:31 37.3 °F /  2.9 °C 21.3 °F /  -5.9 °C 29.53 in /  999.9 hPa West 7.5 mph /  12.1 km/h 11.5 mph /  18.5 km/h 52 % 0.00 in /  0 mm
14:36 37.2 °F /  2.9 °C 21.6 °F /  -5.8 °C 29.53 in /  999.9 hPa NNW 3.6 mph /  5.8 km/h 8.1 mph /  13 km/h 53 % 0.00 in /  0 mm
14:42 37.1 °F /  2.8 °C 22.0 °F /  -5.6 °C 29.53 in /  999.9 hPa WNW 10.1 mph /  16.3 km/h 15.0 mph /  24.1 km/h 54 % 0.00 in /  0 mm
14:47 36.9 °F /  2.7 °C 21.8 °F /  -5.7 °C 29.53 in /  999.9 hPa WSW 9.1 mph /  14.6 km/h 19.6 mph /  31.5 km/h 54 % 0.00 in /  0 mm
14:52 36.6 °F /  2.6 °C 21.5 °F /  -5.8 °C 29.53 in /  999.9 hPa West 6.6 mph /  10.6 km/h 11.5 mph /  18.5 km/h 54 % 0.00 in /  0 mm
14:57 36.5 °F /  2.5 °C 21.4 °F /  -5.9 °C 29.53 in /  999.9 hPa NW 7.0 mph /  11.3 km/h 19.6 mph /  31.5 km/h 54 % 0.00 in /  0 mm
15:02 36.4 °F /  2.4 °C 21.8 °F /  -5.7 °C 29.53 in /  999.9 hPa WSW 5.5 mph /  8.9 km/h 19.6 mph /  31.5 km/h 55 % 0.00 in /  0 mm
15:07 36.3 °F /  2.4 °C 22.1 °F /  -5.5 °C 29.54 in /  1000.2 hPa West 5.3 mph /  8.5 km/h 17.3 mph /  27.8 km/h 56 % 0.00 in /  0 mm
15:12 36.3 °F /  2.4 °C 22.1 °F /  -5.5 °C 29.54 in /  1000.2 hPa NW 8.1 mph /  13 km/h 21.0 mph /  33.8 km/h 56 % 0.00 in /  0 mm
15:17 36.1 °F /  2.3 °C 21.5 °F /  -5.8 °C 29.54 in /  1000.2 hPa WNW 9.4 mph /  15.1 km/h 17.3 mph /  27.8 km/h 55 % 0.00 in /  0 mm
15:22 36.0 °F /  2.2 °C 21.4 °F /  -5.9 °C 29.54 in /  1000.2 hPa West 7.6 mph /  12.2 km/h 12.7 mph /  20.4 km/h 55 % 0.00 in /  0 mm
15:27 35.8 °F /  2.1 °C 21.6 °F /  -5.8 °C 29.54 in /  1000.2 hPa NW 6.1 mph /  9.8 km/h 13.8 mph /  22.2 km/h 56 % 0.00 in /  0 mm
15:32 35.7 °F /  2.1 °C 21.9 °F /  -5.6 °C 29.54 in /  1000.2 hPa WSW 7.8 mph /  12.6 km/h 15.0 mph /  24.1 km/h 57 % 0.00 in /  0 mm
15:37 35.6 °F /  2 °C 21.4 °F /  -5.9 °C 29.55 in /  1000.6 hPa WNW 5.6 mph /  9 km/h 12.7 mph /  20.4 km/h 56 % 0.00 in /  0 mm
15:43 35.5 °F /  1.9 °C 21.3 °F /  -5.9 °C 29.55 in /  1000.6 hPa WNW 6.4 mph /  10.3 km/h 11.5 mph /  18.5 km/h 56 % 0.00 in /  0 mm
15:48 35.4 °F /  1.9 °C 21.2 °F /  -6 °C 29.55 in /  1000.6 hPa West 9.7 mph /  15.6 km/h 18.4 mph /  29.6 km/h 56 % 0.00 in /  0 mm
15:53 35.3 °F /  1.8 °C 21.2 °F /  -6 °C 29.55 in /  1000.6 hPa West 11.1 mph /  17.9 km/h 22.0 mph /  35.4 km/h 56 % 0.00 in /  0 mm
15:58 35.1 °F /  1.7 °C 21.0 °F /  -6.1 °C 29.55 in /  1000.6 hPa WNW 7.3 mph /  11.7 km/h 12.7 mph /  20.4 km/h 56 % 0.00 in /  0 mm
16:03 35.0 °F /  1.7 °C 21.3 °F /  -5.9 °C 29.56 in /  1000.9 hPa West 5.6 mph /  9 km/h 11.5 mph /  18.5 km/h 57 % 0.00 in /  0 mm
16:08 34.9 °F /  1.6 °C 21.2 °F /  -6 °C 29.55 in /  1000.6 hPa WNW 9.4 mph /  15.1 km/h 15.0 mph /  24.1 km/h 57 % 0.00 in /  0 mm
16:13 34.8 °F /  1.6 °C 21.5 °F /  -5.8 °C 29.56 in /  1000.9 hPa NW 8.5 mph /  13.7 km/h 19.6 mph /  31.5 km/h 58 % 0.00 in /  0 mm
16:18 34.7 °F /  1.5 °C 21.4 °F /  -5.9 °C 29.56 in /  1000.9 hPa NW 7.4 mph /  11.9 km/h 15.0 mph /  24.1 km/h 58 % 0.00 in /  0 mm
16:23 34.6 °F /  1.4 °C 20.9 °F /  -6.2 °C 29.56 in /  1000.9 hPa WNW 7.0 mph /  11.3 km/h 15.0 mph /  24.1 km/h 57 % 0.00 in /  0 mm
16:28 34.4 °F /  1.3 °C 21.1 °F /  -6.1 °C 29.56 in /  1000.9 hPa WNW 8.3 mph /  13.4 km/h 17.3 mph /  27.8 km/h 58 % 0.00 in /  0 mm
16:33 34.2 °F /  1.2 °C 20.5 °F /  -6.4 °C 29.57 in /  1001.2 hPa West 10.7 mph /  17.2 km/h 19.6 mph /  31.5 km/h 57 % 0.00 in /  0 mm
16:38 34.0 °F /  1.1 °C 20.3 °F /  -6.5 °C 29.57 in /  1001.2 hPa NW 7.8 mph /  12.6 km/h 12.7 mph /  20.4 km/h 57 % 0.00 in /  0 mm
16:43 33.9 °F /  1.1 °C 20.7 °F /  -6.3 °C 29.57 in /  1001.2 hPa West 8.1 mph /  13 km/h 17.3 mph /  27.8 km/h 58 % 0.00 in /  0 mm
16:48 33.8 °F /  1 °C 21.0 °F /  -6.1 °C 29.58 in /  1001.6 hPa WSW 5.6 mph /  9 km/h 11.0 mph /  17.7 km/h 59 % 0.00 in /  0 mm
16:53 33.7 °F /  0.9 °C 20.5 °F /  -6.4 °C 29.58 in /  1001.6 hPa WNW 7.9 mph /  12.7 km/h 16.1 mph /  25.9 km/h 58 % 0.00 in /  0 mm
16:59 33.6 °F /  0.9 °C 20.8 °F /  -6.2 °C 29.58 in /  1001.6 hPa WNW 7.8 mph /  12.6 km/h 17.0 mph /  27.4 km/h 59 % 0.00 in /  0 mm
17:04 33.6 °F /  0.9 °C 20.8 °F /  -6.2 °C 29.59 in /  1001.9 hPa WNW 10.3 mph /  16.6 km/h 17.3 mph /  27.8 km/h 59 % 0.00 in /  0 mm
17:09 33.5 °F /  0.8 °C 21.1 °F /  -6.1 °C 29.59 in /  1001.9 hPa WNW 10.9 mph /  17.5 km/h 18.4 mph /  29.6 km/h 60 % 0.00 in /  0 mm
17:14 33.4 °F /  0.8 °C 21.0 °F /  -6.1 °C 29.59 in /  1001.9 hPa WNW 9.9 mph /  15.9 km/h 12.7 mph /  20.4 km/h 60 % 0.00 in /  0 mm
17:19 33.3 °F /  0.7 °C 21.3 °F /  -5.9 °C 29.60 in /  1002.3 hPa WNW 7.8 mph /  12.6 km/h 8.1 mph /  13 km/h 61 % 0.00 in /  0 mm
17:24 33.2 °F /  0.7 °C 21.2 °F /  -6 °C 29.60 in /  1002.3 hPa NW 7.2 mph /  11.6 km/h 20.7 mph /  33.3 km/h 61 % 0.00 in /  0 mm
17:29 33.0 °F /  0.6 °C 21.0 °F /  -6.1 °C 29.60 in /  1002.3 hPa NW 9.7 mph /  15.6 km/h 19.6 mph /  31.5 km/h 61 % 0.00 in /  0 mm
17:34 32.8 °F /  0.4 °C 20.8 °F /  -6.2 °C 29.60 in /  1002.3 hPa WNW 10.6 mph /  17.1 km/h 17.3 mph /  27.8 km/h 61 % 0.00 in /  0 mm
17:39 32.6 °F /  0.3 °C 21.0 °F /  -6.1 °C 29.60 in /  1002.3 hPa North 7.4 mph /  11.9 km/h 16.1 mph /  25.9 km/h 62 % 0.00 in /  0 mm
17:44 32.4 °F /  0.2 °C 21.2 °F /  -6 °C 29.61 in /  1002.6 hPa WNW 7.6 mph /  12.2 km/h 13.8 mph /  22.2 km/h 63 % 0.00 in /  0 mm
17:49 32.3 °F /  0.2 °C 21.1 °F /  -6.1 °C 29.61 in /  1002.6 hPa WNW 12.4 mph /  20 km/h 21.9 mph /  35.2 km/h 63 % 0.00 in /  0 mm
17:54 32.3 °F /  0.2 °C 20.7 °F /  -6.3 °C 29.62 in /  1002.9 hPa SW 11.0 mph /  17.7 km/h 18.4 mph /  29.6 km/h 62 % 0.00 in /  0 mm
17:59 32.2 °F /  0.1 °C 20.6 °F /  -6.3 °C 29.62 in /  1002.9 hPa West 6.2 mph /  10 km/h 15.0 mph /  24.1 km/h 62 % 0.00 in /  0 mm
18:04 32.1 °F /  0.1 °C 20.9 °F /  -6.2 °C 29.62 in /  1002.9 hPa NW 9.1 mph /  14.6 km/h 15.0 mph /  24.1 km/h 63 % 0.00 in /  0 mm
18:09 32.1 °F /  0.1 °C 20.9 °F /  -6.2 °C 29.62 in /  1002.9 hPa West 8.7 mph /  14 km/h 15.0 mph /  24.1 km/h 63 % 0.00 in /  0 mm
18:14 32.1 °F /  0.1 °C 20.9 °F /  -6.2 °C 29.63 in /  1003.3 hPa NW 10.7 mph /  17.2 km/h 16.1 mph /  25.9 km/h 63 % 0.00 in /  0 mm
18:19 32.0 °F /  0 °C 20.4 °F /  -6.4 °C 29.63 in /  1003.3 hPa NW 7.5 mph /  12.1 km/h 20.7 mph /  33.3 km/h 62 % 0.00 in /  0 mm
18:24 32.0 °F /  0 °C 20.4 °F /  -6.4 °C 29.63 in /  1003.3 hPa WNW 7.5 mph /  12.1 km/h 16.0 mph /  25.7 km/h 62 % 0.00 in /  0 mm
18:29 31.9 °F /  -0.1 °C 20.7 °F /  -6.3 °C 29.64 in /  1003.6 hPa NW 6.4 mph /  10.3 km/h 17.3 mph /  27.8 km/h 63 % 0.00 in /  0 mm
18:34 31.9 °F /  -0.1 °C 20.7 °F /  -6.3 °C 29.64 in /  1003.6 hPa WNW 4.7 mph /  7.6 km/h 10.4 mph /  16.7 km/h 63 % 0.00 in /  0 mm
18:39 31.7 °F /  -0.2 °C 20.2 °F /  -6.6 °C 29.64 in /  1003.6 hPa WNW 11.1 mph /  17.9 km/h 16.0 mph /  25.7 km/h 62 % 0.00 in /  0 mm
18:44 31.7 °F /  -0.2 °C 20.2 °F /  -6.6 °C 29.64 in /  1003.6 hPa WNW 8.7 mph /  14 km/h 16.1 mph /  25.9 km/h 62 % 0.00 in /  0 mm
18:49 31.5 °F /  -0.3 °C 19.6 °F /  -6.9 °C 29.65 in /  1003.9 hPa NW 11.5 mph /  18.5 km/h 18.4 mph /  29.6 km/h 61 % 0.00 in /  0 mm
18:55 31.5 °F /  -0.3 °C 20.3 °F /  -6.5 °C 29.65 in /  1003.9 hPa WNW 8.5 mph /  13.7 km/h 16.1 mph /  25.9 km/h 63 % 0.00 in /  0 mm
19:00 31.4 °F /  -0.3 °C 19.9 °F /  -6.7 °C 29.65 in /  1003.9 hPa NW 8.6 mph /  13.8 km/h 13.8 mph /  22.2 km/h 62 % 0.00 in /  0 mm
19:05 31.3 °F /  -0.4 °C 20.2 °F /  -6.6 °C 29.65 in /  1003.9 hPa NNW 6.9 mph /  11.1 km/h 18.4 mph /  29.6 km/h 63 % 0.00 in /  0 mm
19:10 31.2 °F /  -0.4 °C 19.7 °F /  -6.8 °C 29.65 in /  1003.9 hPa WNW 8.5 mph /  13.7 km/h 19.6 mph /  31.5 km/h 62 % 0.00 in /  0 mm
19:15 31.1 °F /  -0.5 °C 19.6 °F /  -6.9 °C 29.66 in /  1004.3 hPa WNW 9.1 mph /  14.6 km/h 18.4 mph /  29.6 km/h 62 % 0.00 in /  0 mm
19:20 31.0 °F /  -0.6 °C 19.5 °F /  -6.9 °C 29.66 in /  1004.3 hPa North 11.5 mph /  18.5 km/h 15.0 mph /  24.1 km/h 62 % 0.00 in /  0 mm
19:25 30.9 °F /  -0.6 °C 19.4 °F /  -7 °C 29.66 in /  1004.3 hPa WNW 11.2 mph /  18 km/h 18.4 mph /  29.6 km/h 62 % 0.00 in /  0 mm
19:30 30.8 °F /  -0.7 °C 19.3 °F /  -7.1 °C 29.66 in /  1004.3 hPa WSW 8.7 mph /  14 km/h 16.1 mph /  25.9 km/h 62 % 0.00 in /  0 mm
19:35 30.7 °F /  -0.7 °C 19.2 °F /  -7.1 °C 29.66 in /  1004.3 hPa NW 9.9 mph /  15.9 km/h 18.4 mph /  29.6 km/h 62 % 0.00 in /  0 mm
19:40 30.7 °F /  -0.7 °C 19.6 °F /  -6.9 °C 29.67 in /  1004.6 hPa WNW 8.4 mph /  13.5 km/h 17.3 mph /  27.8 km/h 63 % 0.00 in /  0 mm
19:45 30.6 °F /  -0.8 °C 19.5 °F /  -6.9 °C 29.67 in /  1004.6 hPa WSW 7.2 mph /  11.6 km/h 16.1 mph /  25.9 km/h 63 % 0.00 in /  0 mm
19:50 30.5 °F /  -0.8 °C 19.4 °F /  -7 °C 29.68 in /  1005 hPa West 11.9 mph /  19.2 km/h 19.0 mph /  30.6 km/h 63 % 0.00 in /  0 mm
19:55 30.4 °F /  -0.9 °C 19.3 °F /  -7.1 °C 29.68 in /  1005 hPa West 5.8 mph /  9.3 km/h 18.4 mph /  29.6 km/h 63 % 0.00 in /  0 mm
20:00 30.3 °F /  -0.9 °C 18.8 °F /  -7.3 °C 29.68 in /  1005 hPa WNW 12.5 mph /  20.1 km/h 19.6 mph /  31.5 km/h 62 % 0.00 in /  0 mm
20:05 30.2 °F /  -1 °C 19.1 °F /  -7.2 °C 29.68 in /  1005 hPa WSW 9.0 mph /  14.5 km/h 18.4 mph /  29.6 km/h 63 % 0.00 in /  0 mm
20:10 30.1 °F /  -1.1 °C 19.4 °F /  -7 °C 29.68 in /  1005 hPa WNW 8.0 mph /  12.9 km/h 11.5 mph /  18.5 km/h 64 % 0.00 in /  0 mm
20:15 29.9 °F /  -1.2 °C 18.5 °F /  -7.5 °C 29.68 in /  1005 hPa WNW 7.7 mph /  12.4 km/h 16.1 mph /  25.9 km/h 62 % 0.00 in /  0 mm
20:20 29.8 °F /  -1.2 °C 19.5 °F /  -6.9 °C 29.69 in /  1005.3 hPa NW 6.1 mph /  9.8 km/h 13.8 mph /  22.2 km/h 65 % 0.00 in /  0 mm
20:25 29.7 °F /  -1.3 °C 18.6 °F /  -7.4 °C 29.69 in /  1005.3 hPa WNW 7.7 mph /  12.4 km/h 17.3 mph /  27.8 km/h 63 % 0.00 in /  0 mm
20:31 29.6 °F /  -1.3 °C 18.5 °F /  -7.5 °C 29.69 in /  1005.3 hPa WNW 6.4 mph /  10.3 km/h 20.7 mph /  33.3 km/h 63 % 0.00 in /  0 mm
20:36 29.5 °F /  -1.4 °C 18.4 °F /  -7.6 °C 29.69 in /  1005.3 hPa NW 6.4 mph /  10.3 km/h 11.5 mph /  18.5 km/h 63 % 0.00 in /  0 mm
20:41 29.5 °F /  -1.4 °C 19.2 °F /  -7.1 °C 29.70 in /  1005.6 hPa NW 9.5 mph /  15.3 km/h 13.0 mph /  20.9 km/h 65 % 0.00 in /  0 mm
20:46 29.4 °F /  -1.4 °C 19.4 °F /  -7 °C 29.70 in /  1005.6 hPa NW 6.7 mph /  10.8 km/h 17.3 mph /  27.8 km/h 66 % 0.00 in /  0 mm
20:51 29.4 °F /  -1.4 °C 19.1 °F /  -7.2 °C 29.70 in /  1005.6 hPa WNW 7.7 mph /  12.4 km/h 17.3 mph /  27.8 km/h 65 % 0.00 in /  0 mm
20:56 29.3 °F /  -1.5 °C 19.0 °F /  -7.2 °C 29.70 in /  1005.6 hPa WSW 7.5 mph /  12.1 km/h 19.6 mph /  31.5 km/h 65 % 0.00 in /  0 mm
21:01 29.2 °F /  -1.6 °C 18.9 °F /  -7.3 °C 29.71 in /  1006 hPa NW 4.4 mph /  7.1 km/h 6.9 mph /  11.1 km/h 65 % 0.00 in /  0 mm
21:06 29.2 °F /  -1.6 °C 18.9 °F /  -7.3 °C 29.71 in /  1006 hPa NW 7.5 mph /  12.1 km/h 13.8 mph /  22.2 km/h 65 % 0.00 in /  0 mm
21:11 29.1 °F /  -1.6 °C 18.8 °F /  -7.3 °C 29.71 in /  1006 hPa WNW 3.5 mph /  5.6 km/h 15.0 mph /  24.1 km/h 65 % 0.00 in /  0 mm
21:16 29.0 °F /  -1.7 °C 18.7 °F /  -7.4 °C 29.71 in /  1006 hPa NNW 8.9 mph /  14.3 km/h 14.0 mph /  22.5 km/h 65 % 0.00 in /  0 mm
21:21 29.0 °F /  -1.7 °C 19.1 °F /  -7.2 °C 29.72 in /  1006.3 hPa West 6.8 mph /  10.9 km/h 15.0 mph /  24.1 km/h 66 % 0.00 in /  0 mm
21:26 29.0 °F /  -1.7 °C 18.7 °F /  -7.4 °C 29.72 in /  1006.3 hPa NW 6.7 mph /  10.8 km/h 18.4 mph /  29.6 km/h 65 % 0.00 in /  0 mm
21:31 28.9 °F /  -1.7 °C 19.0 °F /  -7.2 °C 29.72 in /  1006.3 hPa WNW 11.0 mph /  17.7 km/h 16.1 mph /  25.9 km/h 66 % 0.00 in /  0 mm
21:36 28.9 °F /  -1.7 °C 19.0 °F /  -7.2 °C 29.72 in /  1006.3 hPa WNW 6.3 mph /  10.1 km/h 15.0 mph /  24.1 km/h 66 % 0.00 in /  0 mm
21:41 28.8 °F /  -1.8 °C 18.9 °F /  -7.3 °C 29.72 in /  1006.3 hPa WNW 6.3 mph /  10.1 km/h 11.5 mph /  18.5 km/h 66 % 0.00 in /  0 mm
21:46 28.8 °F /  -1.8 °C 19.2 °F /  -7.1 °C 29.72 in /  1006.3 hPa WNW 2.8 mph /  4.5 km/h 6.9 mph /  11.1 km/h 67 % 0.00 in /  0 mm
21:51 28.7 °F /  -1.8 °C 19.1 °F /  -7.2 °C 29.72 in /  1006.3 hPa WNW 6.3 mph /  10.1 km/h 12.0 mph /  19.3 km/h 67 % 0.00 in /  0 mm
21:57 28.7 °F /  -1.8 °C 19.5 °F /  -6.9 °C 29.72 in /  1006.3 hPa NW 9.1 mph /  14.6 km/h 19.6 mph /  31.5 km/h 68 % 0.00 in /  0 mm
22:02 28.6 °F /  -1.9 °C 19.0 °F /  -7.2 °C 29.72 in /  1006.3 hPa NNW 7.9 mph /  12.7 km/h 13.8 mph /  22.2 km/h 67 % 0.00 in /  0 mm
22:07 28.6 °F /  -1.9 °C 18.7 °F /  -7.4 °C 29.73 in /  1006.7 hPa NNW 8.0 mph /  12.9 km/h 13.8 mph /  22.2 km/h 66 % 0.00 in /  0 mm
22:12 28.6 °F /  -1.9 °C 18.7 °F /  -7.4 °C 29.73 in /  1006.7 hPa West 7.3 mph /  11.7 km/h 13.8 mph /  22.2 km/h 66 % 0.00 in /  0 mm
22:17 28.5 °F /  -1.9 °C 18.9 °F /  -7.3 °C 29.73 in /  1006.7 hPa NNW 5.8 mph /  9.3 km/h 17.3 mph /  27.8 km/h 67 % 0.00 in /  0 mm
22:22 28.5 °F /  -1.9 °C 18.9 °F /  -7.3 °C 29.73 in /  1006.7 hPa WNW 4.4 mph /  7.1 km/h 11.5 mph /  18.5 km/h 67 % 0.00 in /  0 mm
22:27 28.4 °F /  -2 °C 18.5 °F /  -7.5 °C 29.73 in /  1006.7 hPa North 4.4 mph /  7.1 km/h 11.5 mph /  18.5 km/h 66 % 0.00 in /  0 mm
22:32 28.4 °F /  -2 °C 18.8 °F /  -7.3 °C 29.73 in /  1006.7 hPa NW 9.5 mph /  15.3 km/h 9.5 mph /  15.3 km/h 67 % 0.00 in /  0 mm
22:37 28.3 °F /  -2.1 °C 18.4 °F /  -7.6 °C 29.74 in /  1007 hPa NW 6.6 mph /  10.6 km/h 10.4 mph /  16.7 km/h 66 % 0.00 in /  0 mm
22:42 28.3 °F /  -2.1 °C 18.7 °F /  -7.4 °C 29.73 in /  1006.7 hPa NW 6.3 mph /  10.1 km/h 10.0 mph /  16.1 km/h 67 % 0.00 in /  0 mm
22:47 28.3 °F /  -2.1 °C 18.7 °F /  -7.4 °C 29.74 in /  1007 hPa WNW 4.3 mph /  6.9 km/h 13.8 mph /  22.2 km/h 67 % 0.00 in /  0 mm
22:52 28.3 °F /  -2.1 °C 18.7 °F /  -7.4 °C 29.73 in /  1006.7 hPa West 7.5 mph /  12.1 km/h 15.0 mph /  24.1 km/h 67 % 0.00 in /  0 mm
22:57 28.3 °F /  -2.1 °C 19.1 °F /  -7.2 °C 29.73 in /  1006.7 hPa NNE 2.1 mph /  3.4 km/h 6.9 mph /  11.1 km/h 68 % 0.00 in /  0 mm
23:02 28.3 °F /  -2.1 °C 19.1 °F /  -7.2 °C 29.74 in /  1007 hPa NW 7.3 mph /  11.7 km/h 12.7 mph /  20.4 km/h 68 % 0.00 in /  0 mm
23:08 28.3 °F /  -2.1 °C 18.7 °F /  -7.4 °C 29.73 in /  1006.7 hPa WNW 5.1 mph /  8.2 km/h 9.2 mph /  14.8 km/h 67 % 0.00 in /  0 mm
23:13 28.3 °F /  -2.1 °C 19.1 °F /  -7.2 °C 29.74 in /  1007 hPa West 4.4 mph /  7.1 km/h 13.0 mph /  20.9 km/h 68 % 0.00 in /  0 mm
23:18 28.3 °F /  -2.1 °C 19.1 °F /  -7.2 °C 29.74 in /  1007 hPa NNW 3.6 mph /  5.8 km/h 10.4 mph /  16.7 km/h 68 % 0.00 in /  0 mm
23:23 28.3 °F /  -2.1 °C 18.7 °F /  -7.4 °C 29.74 in /  1007 hPa NW 5.3 mph /  8.5 km/h 18.0 mph /  29 km/h 67 % 0.00 in /  0 mm
23:28 28.3 °F /  -2.1 °C 18.7 °F /  -7.4 °C 29.73 in /  1006.7 hPa SW 2.3 mph /  3.7 km/h 6.9 mph /  11.1 km/h 67 % 0.00 in /  0 mm
23:33 28.3 °F /  -2.1 °C 19.1 °F /  -7.2 °C 29.74 in /  1007 hPa NW 5.3 mph /  8.5 km/h 10.4 mph /  16.7 km/h 68 % 0.00 in /  0 mm
23:38 28.3 °F /  -2.1 °C 19.1 °F /  -7.2 °C 29.74 in /  1007 hPa WNW 6.0 mph /  9.7 km/h 10.4 mph /  16.7 km/h 68 % 0.00 in /  0 mm
23:43 28.3 °F /  -2.1 °C 18.7 °F /  -7.4 °C 29.74 in /  1007 hPa WNW 5.7 mph /  9.2 km/h 10.4 mph /  16.7 km/h 67 % 0.00 in /  0 mm
23:48 28.3 °F /  -2.1 °C 18.7 °F /  -7.4 °C 29.74 in /  1007 hPa North 5.0 mph /  8 km/h 13.8 mph /  22.2 km/h 67 % 0.00 in /  0 mm
23:53 28.3 °F /  -2.1 °C 18.7 °F /  -7.4 °C 29.74 in /  1007 hPa NNW 9.2 mph /  14.8 km/h 10.4 mph /  16.7 km/h 67 % 0.00 in /  0 mm
23:58 28.3 °F /  -2.1 °C 19.1 °F /  -7.2 °C 29.74 in /  1007 hPa NW 6.4 mph /  10.3 km/h 11.5 mph /  18.5 km/h 68 % 0.00 in /  0 mm
Crab Meadow Weather
Compliments of Weather Underground - 3 mb

Script developed by  Jim McMurry - jmcmurry@mwt.net Adapted for the template by  Wim van der Kuil - Leuven-Template.eu

Weather Terms: Watch - A watch is used when the risk of a hazardous weather or hydrologic event has increased significantly, but its occurrence, location or timing is still uncertain. It is intended to provide enough lead time so those who need to set their plans in motion can do so. A watch means that hazardous weather is possible. People should have a plan of action in case a storm threatens and they should listen for later information and possible warnings especially when planning travel or outdoor activities.